Time;durP1;ratioP1;P1;durP2;ratioP2;P2;SDS_P1;SDS_P2;PMS_P1;PMS_P2;Temp;Humidity;BMP_temperature;BMP_pressure;BME280_temperature;BME280_humidity;BME280_pressure;Samples;Min_cycle;Max_cycle;Signal;HPM_P1;HPM_P2
2022/07/21 00:00:53;;;;;;;14.60;11.95;;;;;;;;;;5083336;28;20480;-70
2022/07/21 00:03:18;;;;;;;14.98;12.20;;;;;;;;;;5090750;28;20031;-69
2022/07/21 00:05:43;;;;;;;16.15;11.25;;;;;;;;;;5092004;28;20028;-70
2022/07/21 00:08:09;;;;;;;14.30;10.48;;;;;;;;;;5101685;28;20043;-70
2022/07/21 00:10:34;;;;;;;13.57;10.50;;;;;;;;;;5108467;28;20024;-71
2022/07/21 00:13:00;;;;;;;14.85;10.93;;;;;;;;;;5112198;28;20055;-70
2022/07/21 00:15:27;;;;;;;12.10;8.52;;;;;;;;;;5108793;28;20031;-71
2022/07/21 00:17:53;;;;;;;12.38;8.68;;;;;;;;;;5111624;28;20027;-70
2022/07/21 00:20:19;;;;;;;13.40;9.00;;;;;;;;;;5110414;28;20031;-68
2022/07/21 00:22:45;;;;;;;11.80;9.70;;;;;;;;;;5111738;28;20471;-71
2022/07/21 00:25:12;;;;;;;15.05;11.05;;;;;;;;;;5110250;28;20038;-70
2022/07/21 00:27:38;;;;;;;16.63;12.60;;;;;;;;;;5091028;28;20233;-71
2022/07/21 00:30:06;;;;;;;19.30;13.75;;;;;;;;;;5091211;28;20135;-70
2022/07/21 00:32:32;;;;;;;16.88;12.02;;;;;;;;;;5091125;28;20032;-70
2022/07/21 00:34:57;;;;;;;19.10;13.30;;;;;;;;;;5110265;28;20361;-69
2022/07/21 00:37:23;;;;;;;16.58;11.25;;;;;;;;;;5109127;28;20046;-69
2022/07/21 00:39:50;;;;;;;15.63;10.80;;;;;;;;;;5112042;28;20085;-71
2022/07/21 00:42:27;;;;;;;12.52;10.10;;;;;;;;;;5104798;28;20028;-71
2022/07/21 00:44:53;;;;;;;15.75;10.73;;;;;;;;;;5090912;28;20074;-70
2022/07/21 00:47:20;;;;;;;13.80;10.48;;;;;;;;;;5094510;28;20028;-68
2022/07/21 00:49:47;;;;;;;13.43;10.20;;;;;;;;;;5095467;28;20032;-71
2022/07/21 00:52:12;;;;;;;15.90;10.95;;;;;;;;;;5098213;28;20032;-70
2022/07/21 00:54:38;;;;;;;14.55;11.15;;;;;;;;;;5094312;28;20651;-71
2022/07/21 00:57:04;;;;;;;18.35;11.30;;;;;;;;;;5101683;28;20111;-72
2022/07/21 00:59:30;;;;;;;19.15;12.25;;;;;;;;;;5114759;28;20492;-71
2022/07/21 01:01:55;;;;;;;18.00;12.45;;;;;;;;;;5096764;28;20156;-70
2022/07/21 01:04:21;;;;;;;21.38;12.90;;;;;;;;;;5094537;28;20516;-68
2022/07/21 01:06:47;;;;;;;17.90;12.50;;;;;;;;;;5109881;28;20058;-72
2022/07/21 01:09:12;;;;;;;19.05;13.18;;;;;;;;;;5115589;28;20024;-72
2022/07/21 01:11:39;;;;;;;18.98;13.30;;;;;;;;;;5097629;28;20181;-71
2022/07/21 01:14:04;;;;;;;18.50;13.30;;;;;;;;;;5094922;28;20380;-72
2022/07/21 01:16:30;;;;;;;18.30;13.48;;;;;;;;;;5104246;28;20024;-70
2022/07/21 01:18:56;;;;;;;21.08;15.30;;;;;;;;;;5114921;28;20149;-70
2022/07/21 01:21:29;;;;;;;25.05;15.30;;;;;;;;;;5104618;28;20024;-71
2022/07/21 01:23:55;;;;;;;24.80;16.08;;;;;;;;;;5112441;28;20027;-72
2022/07/21 01:26:20;;;;;;;24.55;16.63;;;;;;;;;;5115055;28;20152;-70
2022/07/21 01:28:46;;;;;;;27.20;17.40;;;;;;;;;;5114840;28;20135;-72
2022/07/21 01:31:11;;;;;;;27.35;17.63;;;;;;;;;;5100867;28;20111;-72
2022/07/21 01:33:37;;;;;;;34.97;18.45;;;;;;;;;;5075618;28;20039;-72
2022/07/21 01:36:03;;;;;;;33.20;19.38;;;;;;;;;;5094318;28;20028;-73
2022/07/21 01:41:31;;;;;;;30.35;19.63;;;;;;;;;;5094444;28;20063;-71
2022/07/21 01:44:02;;;;;;;34.42;20.20;;;;;;;;;;5094620;28;20030;-71
2022/07/21 01:46:29;;;;;;;34.40;21.13;;;;;;;;;;5095819;28;20107;-70
2022/07/21 01:48:55;;;;;;;31.67;20.55;;;;;;;;;;5094370;28;20039;-71
2022/07/21 01:51:20;;;;;;;30.65;20.63;;;;;;;;;;5088923;28;20044;-70
2022/07/21 01:53:46;;;;;;;33.88;22.13;;;;;;;;;;5104979;28;20027;-71
2022/07/21 01:56:11;;;;;;;33.55;22.77;;;;;;;;;;5101752;28;20109;-70
2022/07/21 01:58:36;;;;;;;33.67;22.05;;;;;;;;;;5112071;28;20375;-71
2022/07/21 02:01:02;;;;;;;39.88;23.70;;;;;;;;;;5114654;28;20030;-72
2022/07/21 02:03:28;;;;;;;38.63;23.55;;;;;;;;;;5112827;28;20433;-70
2022/07/21 02:06:00;;;;;;;40.30;24.15;;;;;;;;;;5110349;28;20114;-71
2022/07/21 02:08:26;;;;;;;41.67;24.38;;;;;;;;;;5106004;28;20027;-69
2022/07/21 02:10:51;;;;;;;32.03;21.58;;;;;;;;;;5114409;28;20086;-72
2022/07/21 02:13:17;;;;;;;37.00;22.17;;;;;;;;;;5113309;28;20099;-72
2022/07/21 02:15:42;;;;;;;29.23;18.98;;;;;;;;;;5095104;28;20167;-71
2022/07/21 02:18:07;;;;;;;29.15;18.95;;;;;;;;;;5107258;28;20028;-72
2022/07/21 02:20:33;;;;;;;25.90;16.83;;;;;;;;;;5092492;28;20357;-71
2022/07/21 02:22:58;;;;;;;27.80;16.70;;;;;;;;;;5092637;28;20524;-71
2022/07/21 02:25:24;;;;;;;22.25;16.05;;;;;;;;;;5102725;28;20484;-68
2022/07/21 02:27:49;;;;;;;23.10;15.48;;;;;;;;;;5113549;28;20034;-72
2022/07/21 02:30:14;;;;;;;24.73;16.92;;;;;;;;;;5112201;28;20023;-71
2022/07/21 02:32:40;;;;;;;22.00;14.70;;;;;;;;;;5113087;28;20122;-71
2022/07/21 02:35:06;;;;;;;21.48;13.88;;;;;;;;;;5107959;28;20027;-70
2022/07/21 02:37:32;;;;;;;22.52;13.60;;;;;;;;;;5112825;28;20035;-71
2022/07/21 02:39:57;;;;;;;21.30;14.20;;;;;;;;;;5106155;28;20379;-71
2022/07/21 02:42:23;;;;;;;21.63;13.55;;;;;;;;;;5093447;28;20050;-63
2022/07/21 02:44:48;;;;;;;18.20;11.85;;;;;;;;;;5090885;28;20145;-65
2022/07/21 02:47:14;;;;;;;19.85;11.73;;;;;;;;;;5107744;28;20039;-64
2022/07/21 02:49:39;;;;;;;18.08;12.10;;;;;;;;;;5078207;28;20035;-64
2022/07/21 02:52:05;;;;;;;24.27;13.38;;;;;;;;;;5124214;27;20076;-63
2022/07/21 02:54:30;;;;;;;20.40;13.30;;;;;;;;;;5110220;27;20104;-64
2022/07/21 02:56:56;;;;;;;21.80;14.07;;;;;;;;;;5104402;28;20034;-64
2022/07/21 02:59:21;;;;;;;21.33;13.13;;;;;;;;;;5104850;28;20028;-64
2022/07/21 03:01:47;;;;;;;21.75;13.20;;;;;;;;;;5091807;28;20119;-64
2022/07/21 03:04:12;;;;;;;19.85;11.93;;;;;;;;;;5093886;28;20133;-64
2022/07/21 03:06:38;;;;;;;16.70;11.30;;;;;;;;;;5098796;28;20040;-64
2022/07/21 03:09:04;;;;;;;21.60;12.20;;;;;;;;;;5113357;28;20024;-63
2022/07/21 03:11:29;;;;;;;17.85;12.27;;;;;;;;;;5111285;28;20153;-65
2022/07/21 03:13:54;;;;;;;18.13;12.50;;;;;;;;;;5112745;28;20139;-64
2022/07/21 03:16:20;;;;;;;19.05;12.50;;;;;;;;;;5112042;28;20027;-63
2022/07/21 03:18:45;;;;;;;19.90;12.50;;;;;;;;;;5102044;28;20208;-63
2022/07/21 03:21:11;;;;;;;21.52;13.07;;;;;;;;;;5090239;28;20472;-63
2022/07/21 03:23:36;;;;;;;17.38;12.38;;;;;;;;;;5091694;28;20024;-64
2022/07/21 03:26:02;;;;;;;19.42;11.65;;;;;;;;;;5093860;28;20028;-64
2022/07/21 03:28:27;;;;;;;17.27;11.63;;;;;;;;;;5112559;28;20464;-67
2022/07/21 03:30:53;;;;;;;19.90;12.07;;;;;;;;;;5092148;28;20085;-64
2022/07/21 03:33:18;;;;;;;20.90;12.50;;;;;;;;;;5108822;28;20115;-64
2022/07/21 03:35:43;;;;;;;21.60;13.23;;;;;;;;;;5111343;28;20047;-64
2022/07/21 03:38:09;;;;;;;23.67;13.48;;;;;;;;;;5112686;28;20020;-64
2022/07/21 03:40:36;;;;;;;20.67;12.85;;;;;;;;;;5111019;28;20521;-64
2022/07/21 03:43:04;;;;;;;20.42;12.77;;;;;;;;;;5112688;28;20123;-63
2022/07/21 03:45:31;;;;;;;20.83;13.88;;;;;;;;;;5095248;28;20436;-66
2022/07/21 03:47:58;;;;;;;20.83;13.25;;;;;;;;;;5108811;28;20031;-63
2022/07/21 03:50:24;;;;;;;22.00;13.75;;;;;;;;;;5110749;28;20031;-63
2022/07/21 03:52:49;;;;;;;20.50;13.20;;;;;;;;;;5111994;28;20031;-62
2022/07/21 03:55:17;;;;;;;19.73;12.93;;;;;;;;;;5097697;28;20048;-63
2022/07/21 03:57:52;;;;;;;21.33;13.88;;;;;;;;;;5073141;28;20031;-63
2022/07/21 04:00:25;;;;;;;21.48;13.90;;;;;;;;;;5105363;28;20035;-62
2022/07/21 04:02:51;;;;;;;20.48;13.55;;;;;;;;;;5091207;28;20114;-63
2022/07/21 04:05:18;;;;;;;19.77;13.65;;;;;;;;;;5105066;28;20382;-62
2022/07/21 04:07:45;;;;;;;19.00;13.70;;;;;;;;;;5111378;28;20410;-62
2022/07/21 04:10:13;;;;;;;18.48;12.80;;;;;;;;;;5111719;28;20035;-62
2022/07/21 04:12:39;;;;;;;20.48;14.00;;;;;;;;;;5111601;28;20040;-62
2022/07/21 04:15:06;;;;;;;22.55;14.35;;;;;;;;;;5100051;28;20039;-62
2022/07/21 04:17:32;;;;;;;20.95;14.00;;;;;;;;;;5091167;28;20024;-65
2022/07/21 04:19:57;;;;;;;25.20;14.75;;;;;;;;;;5100341;28;20056;-63
2022/07/21 04:22:23;;;;;;;26.05;15.80;;;;;;;;;;5108018;28;20019;-63
2022/07/21 04:24:48;;;;;;;24.35;14.70;;;;;;;;;;5090856;28;20040;-64
2022/07/21 04:27:14;;;;;;;24.00;15.20;;;;;;;;;;5091664;28;20039;-65
2022/07/21 04:29:39;;;;;;;23.42;14.90;;;;;;;;;;5104739;28;20122;-62
2022/07/21 04:32:05;;;;;;;23.48;14.55;;;;;;;;;;5112185;28;20402;-62
2022/07/21 04:34:31;;;;;;;25.60;14.73;;;;;;;;;;5079575;28;20481;-67
2022/07/21 04:36:56;;;;;;;22.02;14.77;;;;;;;;;;5094460;28;20034;-62
2022/07/21 04:39:22;;;;;;;28.42;15.65;;;;;;;;;;5099730;28;20036;-61
2022/07/21 04:41:47;;;;;;;23.10;14.90;;;;;;;;;;5090451;28;20483;-64
2022/07/21 04:44:13;;;;;;;25.48;15.57;;;;;;;;;;5091654;28;20099;-64
2022/07/21 04:46:38;;;;;;;27.05;15.40;;;;;;;;;;5095896;28;20126;-63
2022/07/21 04:49:04;;;;;;;24.48;15.13;;;;;;;;;;5091574;28;20066;-62
2022/07/21 04:51:29;;;;;;;25.88;15.45;;;;;;;;;;5092650;28;20031;-63
2022/07/21 04:53:54;;;;;;;22.08;14.80;;;;;;;;;;5111168;28;20031;-64
2022/07/21 04:56:20;;;;;;;26.55;16.58;;;;;;;;;;5105903;28;20055;-64
2022/07/21 04:58:45;;;;;;;25.80;16.40;;;;;;;;;;5090496;28;20035;-63
2022/07/21 05:01:11;;;;;;;27.42;16.52;;;;;;;;;;5091913;28;20051;-63
2022/07/21 05:03:36;;;;;;;27.65;16.85;;;;;;;;;;5108243;28;20039;-64
2022/07/21 05:06:01;;;;;;;23.13;16.35;;;;;;;;;;5109502;28;20156;-64
2022/07/21 05:08:27;;;;;;;25.08;16.23;;;;;;;;;;5092682;28;20028;-63
2022/07/21 05:10:53;;;;;;;24.90;16.65;;;;;;;;;;5089762;28;20102;-64
2022/07/21 05:13:18;;;;;;;26.77;16.27;;;;;;;;;;5091148;28;20032;-63
2022/07/21 05:15:44;;;;;;;26.40;16.48;;;;;;;;;;5092713;28;20047;-63
2022/07/21 05:18:09;;;;;;;24.92;16.58;;;;;;;;;;5111995;28;20031;-62
2022/07/21 05:20:35;;;;;;;24.30;16.13;;;;;;;;;;5120485;28;20023;-67
2022/07/21 05:23:01;;;;;;;28.42;17.20;;;;;;;;;;5120161;28;20042;-63
2022/07/21 05:25:27;;;;;;;25.23;17.35;;;;;;;;;;5110372;28;20035;-64
2022/07/21 05:27:53;;;;;;;26.33;17.05;;;;;;;;;;5109060;28;20812;-62
2022/07/21 05:30:18;;;;;;;27.77;17.48;;;;;;;;;;5104975;28;20028;-62
2022/07/21 05:32:44;;;;;;;26.25;17.73;;;;;;;;;;5084630;28;20040;-65
2022/07/21 05:35:11;;;;;;;29.80;18.33;;;;;;;;;;5114175;28;20024;-64
2022/07/21 05:37:40;;;;;;;29.80;18.55;;;;;;;;;;5113153;28;20050;-64
2022/07/21 05:40:09;;;;;;;27.52;18.13;;;;;;;;;;5083949;28;20405;-63
2022/07/21 05:42:35;;;;;;;29.20;18.45;;;;;;;;;;5098090;28;20437;-67
2022/07/21 05:45:01;;;;;;;29.92;18.98;;;;;;;;;;5117793;27;20035;-64
2022/07/21 05:47:26;;;;;;;26.92;18.70;;;;;;;;;;5119844;27;20036;-65
2022/07/21 05:49:52;;;;;;;27.40;17.80;;;;;;;;;;5113810;28;20527;-64
2022/07/21 05:52:17;;;;;;;25.02;16.08;;;;;;;;;;5111485;28;20047;-65
2022/07/21 05:54:42;;;;;;;25.20;16.70;;;;;;;;;;5113569;28;20031;-63
2022/07/21 05:57:08;;;;;;;25.38;17.83;;;;;;;;;;5125390;27;20110;-65
2022/07/21 05:59:33;;;;;;;25.77;17.98;;;;;;;;;;5126236;27;20376;-68
2022/07/21 06:01:59;;;;;;;22.70;16.40;;;;;;;;;;5093640;28;20077;-65
2022/07/21 06:04:24;;;;;;;22.38;17.17;;;;;;;;;;5085140;28;20039;-67
2022/07/21 06:06:52;;;;;;;23.65;16.80;;;;;;;;;;5113449;28;20092;-64
2022/07/21 06:09:18;;;;;;;21.88;16.30;;;;;;;;;;5107240;28;20058;-64
2022/07/21 06:11:43;;;;;;;24.75;16.98;;;;;;;;;;5092389;28;20391;-65
2022/07/21 06:14:08;;;;;;;25.00;16.85;;;;;;;;;;5102565;28;20535;-63
2022/07/21 06:16:34;;;;;;;20.45;14.90;;;;;;;;;;5091580;28;20039;-66
2022/07/21 06:19:01;;;;;;;20.02;14.93;;;;;;;;;;5092748;28;20491;-63
2022/07/21 06:21:27;;;;;;;21.08;14.55;;;;;;;;;;5098127;28;20416;-65
2022/07/21 06:23:52;;;;;;;18.23;14.35;;;;;;;;;;5103936;28;20032;-67
2022/07/21 06:26:18;;;;;;;21.30;14.02;;;;;;;;;;5104126;28;20486;-66
2022/07/21 06:28:44;;;;;;;20.15;14.15;;;;;;;;;;5104316;28;20031;-63
2022/07/21 06:31:09;;;;;;;17.42;12.77;;;;;;;;;;5096239;28;20395;-64
2022/07/21 06:33:35;;;;;;;18.25;14.00;;;;;;;;;;5111698;28;20170;-67
2022/07/21 06:36:00;;;;;;;20.40;13.23;;;;;;;;;;5098346;28;20028;-65
2022/07/21 06:38:25;;;;;;;17.30;13.32;;;;;;;;;;5094418;28;20396;-65
2022/07/21 06:40:51;;;;;;;20.88;13.25;;;;;;;;;;5101123;28;20035;-67
2022/07/21 06:43:16;;;;;;;18.85;13.07;;;;;;;;;;5111517;28;20031;-66
2022/07/21 06:45:42;;;;;;;17.27;12.65;;;;;;;;;;5124170;27;20409;-65
2022/07/21 06:48:09;;;;;;;15.30;10.82;;;;;;;;;;5114181;27;20035;-66
2022/07/21 06:50:36;;;;;;;16.23;11.30;;;;;;;;;;5092992;28;20110;-68
2022/07/21 06:53:02;;;;;;;15.10;11.98;;;;;;;;;;5072990;28;20445;-68
2022/07/21 06:55:28;;;;;;;18.38;11.20;;;;;;;;;;5092997;28;20048;-67
2022/07/21 06:57:54;;;;;;;15.00;11.18;;;;;;;;;;5090941;28;20089;-68
2022/07/21 07:00:19;;;;;;;15.50;11.65;;;;;;;;;;5093198;28;20024;-65
2022/07/21 07:02:45;;;;;;;13.90;10.60;;;;;;;;;;5091186;28;20040;-65
2022/07/21 07:05:10;;;;;;;13.30;9.88;;;;;;;;;;5101179;28;20036;-65
2022/07/21 07:07:36;;;;;;;14.52;10.18;;;;;;;;;;5110454;28;20036;-65
2022/07/21 07:10:02;;;;;;;15.00;9.63;;;;;;;;;;5113527;28;20027;-64
2022/07/21 07:12:28;;;;;;;19.20;10.40;;;;;;;;;;5101093;28;20039;-64
2022/07/21 07:14:53;;;;;;;14.15;10.20;;;;;;;;;;5106320;28;20024;-64
2022/07/21 07:17:19;;;;;;;12.90;10.07;;;;;;;;;;5096552;28;20038;-63
2022/07/21 07:19:45;;;;;;;13.75;10.07;;;;;;;;;;5099160;28;20035;-66
2022/07/21 07:22:11;;;;;;;14.30;10.10;;;;;;;;;;5107458;27;20035;-67
2022/07/21 07:24:36;;;;;;;14.15;9.23;;;;;;;;;;5124113;27;20043;-67
2022/07/21 07:27:02;;;;;;;12.00;9.68;;;;;;;;;;5112498;28;20447;-63
2022/07/21 07:29:28;;;;;;;11.98;8.95;;;;;;;;;;5109803;28;20112;-65
2022/07/21 07:31:54;;;;;;;12.80;8.18;;;;;;;;;;5098594;28;20134;-66
2022/07/21 07:34:20;;;;;;;13.32;8.60;;;;;;;;;;5108660;28;20118;-63
2022/07/21 07:36:46;;;;;;;11.57;8.77;;;;;;;;;;5094031;28;20036;-64
2022/07/21 07:39:11;;;;;;;9.18;7.50;;;;;;;;;;5093490;28;20042;-64
2022/07/21 07:41:37;;;;;;;12.40;7.97;;;;;;;;;;5094023;28;20036;-68
2022/07/21 07:44:03;;;;;;;11.20;8.02;;;;;;;;;;5091764;28;20051;-63
2022/07/21 07:46:29;;;;;;;10.00;7.90;;;;;;;;;;5095552;28;20028;-65
2022/07/21 07:48:55;;;;;;;13.48;8.30;;;;;;;;;;5092931;28;20027;-65
2022/07/21 07:51:20;;;;;;;11.70;7.80;;;;;;;;;;5098880;28;20085;-65
2022/07/21 07:53:45;;;;;;;10.57;7.45;;;;;;;;;;5100350;28;20092;-64
2022/07/21 07:56:11;;;;;;;11.48;7.75;;;;;;;;;;5111695;28;20044;-63
2022/07/21 07:58:36;;;;;;;10.18;7.13;;;;;;;;;;5105005;28;20078;-67
2022/07/21 08:01:03;;;;;;;12.25;7.60;;;;;;;;;;5089237;28;20104;-65
2022/07/21 08:03:28;;;;;;;13.20;7.80;;;;;;;;;;5107449;28;20031;-65
2022/07/21 08:05:58;;;;;;;11.85;8.30;;;;;;;;;;5110022;28;20106;-63
2022/07/21 08:08:24;;;;;;;13.70;8.30;;;;;;;;;;5096256;28;20115;-64
2022/07/21 08:10:49;;;;;;;12.90;9.07;;;;;;;;;;5102619;28;20123;-65
2022/07/21 08:13:17;;;;;;;12.90;9.43;;;;;;;;;;5108561;28;20398;-65
2022/07/21 08:15:43;;;;;;;14.63;9.85;;;;;;;;;;5107020;28;20487;-66
2022/07/21 08:18:09;;;;;;;12.40;8.57;;;;;;;;;;5093505;28;20030;-65
2022/07/21 08:20:36;;;;;;;13.80;8.75;;;;;;;;;;5092682;28;20028;-68
2022/07/21 08:23:02;;;;;;;11.02;7.72;;;;;;;;;;5094387;28;20043;-66
2022/07/21 08:25:27;;;;;;;10.38;7.05;;;;;;;;;;5108726;28;20410;-65
2022/07/21 08:27:53;;;;;;;10.80;7.03;;;;;;;;;;5110594;28;20032;-64
2022/07/21 08:30:18;;;;;;;10.45;6.32;;;;;;;;;;5110945;28;20035;-65
2022/07/21 08:32:43;;;;;;;8.40;6.70;;;;;;;;;;5098783;28;20032;-64
2022/07/21 08:35:09;;;;;;;8.85;6.07;;;;;;;;;;5090581;28;20488;-63
2022/07/21 08:37:35;;;;;;;11.00;6.13;;;;;;;;;;5090406;28;20040;-65
2022/07/21 08:40:03;;;;;;;11.27;6.40;;;;;;;;;;5094364;28;20402;-64
2022/07/21 08:42:29;;;;;;;10.90;6.47;;;;;;;;;;5091936;28;20097;-64
2022/07/21 08:44:55;;;;;;;11.73;6.32;;;;;;;;;;5085749;28;20473;-63
2022/07/21 08:47:20;;;;;;;9.18;6.00;;;;;;;;;;5102130;28;20039;-64
2022/07/21 08:49:46;;;;;;;7.20;5.30;;;;;;;;;;5088975;28;20032;-65
2022/07/21 08:52:12;;;;;;;9.52;5.20;;;;;;;;;;5101521;28;20428;-65
2022/07/21 08:54:38;;;;;;;7.90;4.97;;;;;;;;;;5100344;28;20523;-66
2022/07/21 08:57:03;;;;;;;8.75;4.93;;;;;;;;;;5122035;28;20031;-66
2022/07/21 08:59:29;;;;;;;7.68;5.32;;;;;;;;;;5116572;28;20134;-65
2022/07/21 09:01:54;;;;;;;8.27;5.05;;;;;;;;;;5094249;28;20040;-68
2022/07/21 09:04:24;;;;;;;6.97;5.00;;;;;;;;;;5097036;28;20084;-64
2022/07/21 09:06:59;;;;;;;7.13;5.03;;;;;;;;;;5092183;28;20071;-66
2022/07/21 09:09:26;;;;;;;6.78;5.35;;;;;;;;;;5077138;28;20119;-66
2022/07/21 09:11:53;;;;;;;8.13;5.68;;;;;;;;;;5094854;28;20118;-67
2022/07/21 09:14:24;;;;;;;7.90;5.50;;;;;;;;;;5095277;28;20024;-64
2022/07/21 09:16:55;;;;;;;10.55;5.55;;;;;;;;;;5098420;28;20032;-65
2022/07/21 09:19:35;;;;;;;11.77;4.95;;;;;;;;;;5115356;28;20421;-63
2022/07/21 09:22:03;;;;;;;7.90;5.43;;;;;;;;;;5114052;28;20020;-64
2022/07/21 09:24:38;;;;;;;10.30;5.80;;;;;;;;;;5115354;28;20043;-64
2022/07/21 09:27:06;;;;;;;9.40;5.50;;;;;;;;;;5113990;28;20363;-64
2022/07/21 09:29:40;;;;;;;8.02;5.40;;;;;;;;;;5113137;28;20479;-64
2022/07/21 09:32:27;;;;;;;9.48;5.72;;;;;;;;;;5113757;28;20027;-63
2022/07/21 09:34:59;;;;;;;8.65;4.97;;;;;;;;;;5105613;28;20034;-63
2022/07/21 09:37:26;;;;;;;8.45;4.68;;;;;;;;;;5114867;28;20031;-63
2022/07/21 09:40:00;;;;;;;7.30;4.40;;;;;;;;;;5114154;28;20582;-64
2022/07/21 09:42:29;;;;;;;6.75;4.18;;;;;;;;;;5106452;28;20544;-65
2022/07/21 09:44:58;;;;;;;7.35;4.53;;;;;;;;;;5100300;28;20261;-68
2022/07/21 09:47:26;;;;;;;8.32;4.80;;;;;;;;;;5101366;28;20032;-66
2022/07/21 09:49:52;;;;;;;6.43;4.50;;;;;;;;;;5114048;28;20163;-65
2022/07/21 09:52:23;;;;;;;10.80;4.82;;;;;;;;;;5107925;28;20055;-65
2022/07/21 09:54:53;;;;;;;6.82;5.00;;;;;;;;;;5093315;28;20219;-67
2022/07/21 09:57:19;;;;;;;9.55;5.18;;;;;;;;;;5093999;28;20035;-64
2022/07/21 09:59:46;;;;;;;8.95;5.30;;;;;;;;;;5092808;28;20024;-64
2022/07/21 10:02:17;;;;;;;8.13;4.95;;;;;;;;;;5094755;28;20415;-67
2022/07/21 10:04:43;;;;;;;;;;;;;;;;;;5093720;28;20384;-67
2022/07/21 10:07:09;;;;;;;8.68;5.00;;;;;;;;;;5106898;28;20027;-64
2022/07/21 10:09:35;;;;;;;10.68;5.55;;;;;;;;;;5113932;28;20042;-64
2022/07/21 10:12:01;;;;;;;8.60;5.28;;;;;;;;;;5101108;28;20028;-64
2022/07/21 10:14:27;;;;;;;7.38;5.55;;;;;;;;;;5093680;28;20028;-63
2022/07/21 10:16:52;;;;;;;7.93;5.45;;;;;;;;;;5104250;28;20490;-64
2022/07/21 10:19:31;;;;;;;7.72;5.50;;;;;;;;;;5099895;28;20031;-64
2022/07/21 10:22:17;;;;;;;7.25;5.57;;;;;;;;;;5103605;28;20668;-62
2022/07/21 10:24:43;;;;;;;10.48;6.07;;;;;;;;;;5074431;28;20036;-63
2022/07/21 10:27:11;;;;;;;9.65;5.75;;;;;;;;;;5111422;28;20031;-64
2022/07/21 10:29:48;;;;;;;7.57;5.80;;;;;;;;;;5097996;28;20048;-67
2022/07/21 10:32:19;;;;;;;10.48;6.30;;;;;;;;;;5093412;28;20060;-62
2022/07/21 10:34:45;;;;;;;8.60;6.00;;;;;;;;;;5095169;28;20086;-62
2022/07/21 10:37:31;;;;;;;9.88;5.93;;;;;;;;;;5101910;28;20081;-70
2022/07/21 10:39:56;;;;;;;10.55;5.97;;;;;;;;;;5093739;28;20220;-62
2022/07/21 10:42:22;;;;;;;8.75;5.85;;;;;;;;;;5093070;28;20529;-63
2022/07/21 10:44:47;;;;;;;10.70;6.25;;;;;;;;;;5092546;28;20028;-64
2022/07/21 10:47:23;;;;;;;9.18;5.63;;;;;;;;;;5092791;28;20491;-64
2022/07/21 10:49:56;;;;;;;9.57;6.47;;;;;;;;;;5091918;28;20027;-63
2022/07/21 10:52:45;;;;;;;7.75;6.10;;;;;;;;;;5104199;28;20028;-63
2022/07/21 10:55:10;;;;;;;9.15;5.68;;;;;;;;;;5111959;28;20043;-65
2022/07/21 10:57:43;;;;;;;10.65;6.32;;;;;;;;;;5119693;27;20042;-64
2022/07/21 11:00:29;;;;;;;7.43;6.13;;;;;;;;;;5112602;28;20106;-64
2022/07/21 11:03:01;;;;;;;10.25;5.90;;;;;;;;;;5111778;28;20182;-64
2022/07/21 11:05:29;;;;;;;8.60;6.07;;;;;;;;;;5104302;28;20028;-63
2022/07/21 11:08:14;;;;;;;9.30;6.32;;;;;;;;;;5112245;28;20035;-64
2022/07/21 11:10:51;;;;;;;9.60;6.85;;;;;;;;;;5092050;28;20051;-65
2022/07/21 11:13:18;;;;;;;11.85;7.40;;;;;;;;;;5107433;28;20039;-63
2022/07/21 11:15:56;;;;;;;11.02;8.05;;;;;;;;;;5109753;28;20379;-62
2022/07/21 11:18:25;;;;;;;15.52;8.50;;;;;;;;;;5106371;28;20055;-61
2022/07/21 11:21:05;;;;;;;12.07;8.82;;;;;;;;;;5111276;28;20111;-63
2022/07/21 11:23:48;;;;;;;15.15;11.13;;;;;;;;;;5112246;28;20035;-65
2022/07/21 11:26:23;;;;;;;17.55;11.85;;;;;;;;;;5112917;28;20031;-66
2022/07/21 11:29:06;;;;;;;19.35;12.55;;;;;;;;;;5109707;28;20399;-65
2022/07/21 11:31:31;;;;;;;16.90;12.38;;;;;;;;;;5109819;28;20034;-66
2022/07/21 11:33:57;;;;;;;18.83;12.48;;;;;;;;;;5111759;28;20099;-66
2022/07/21 11:36:29;;;;;;;16.98;12.35;;;;;;;;;;5100183;28;20023;-67
2022/07/21 11:39:03;;;;;;;16.17;11.50;;;;;;;;;;5110696;28;20027;-65
2022/07/21 11:41:28;;;;;;;17.60;13.02;;;;;;;;;;5107072;28;20031;-65
2022/07/21 11:43:54;;;;;;;17.58;12.35;;;;;;;;;;5111633;28;20411;-61
2022/07/21 11:46:19;;;;;;;17.98;13.02;;;;;;;;;;5103345;28;20417;-62
2022/07/21 11:48:45;;;;;;;20.73;14.25;;;;;;;;;;5090963;28;20043;-66
2022/07/21 11:51:11;;;;;;;21.92;14.20;;;;;;;;;;5091752;28;20039;-65
2022/07/21 11:53:44;;;;;;;19.83;14.75;;;;;;;;;;5091826;28;20031;-66
2022/07/21 11:56:14;;;;;;;22.38;15.43;;;;;;;;;;5074950;28;20075;-66
2022/07/21 11:58:39;;;;;;;22.17;15.77;;;;;;;;;;5092009;28;20028;-69
2022/07/21 12:01:07;;;;;;;23.42;15.63;;;;;;;;;;5092469;28;20048;-64
2022/07/21 12:03:33;;;;;;;22.73;15.55;;;;;;;;;;5096150;27;21694;-67
2022/07/21 12:06:00;;;;;;;21.88;15.02;;;;;;;;;;5095686;27;20028;-68
2022/07/21 12:08:26;;;;;;;20.98;14.95;;;;;;;;;;5091593;28;20043;-69
2022/07/21 12:11:04;;;;;;;26.42;15.80;;;;;;;;;;5113682;27;20119;-68
2022/07/21 12:13:29;;;;;;;26.58;14.88;;;;;;;;;;5107347;28;20038;-67
2022/07/21 12:15:55;;;;;;;22.02;14.68;;;;;;;;;;5072186;28;20116;-66
2022/07/21 12:18:24;;;;;;;21.25;14.70;;;;;;;;;;5093857;28;20040;-67
2022/07/21 12:21:01;;;;;;;22.55;14.48;;;;;;;;;;5099262;28;20111;-65
2022/07/21 12:23:28;;;;;;;25.05;15.13;;;;;;;;;;5094007;28;20039;-66
2022/07/21 12:25:56;;;;;;;17.65;12.27;;;;;;;;;;5104229;28;20127;-62
2022/07/21 12:28:46;;;;;;;19.27;13.98;;;;;;;;;;5111835;28;20028;-64
2022/07/21 12:31:14;;;;;;;22.02;15.70;;;;;;;;;;5095393;28;20024;-66
2022/07/21 12:33:40;;;;;;;20.58;14.45;;;;;;;;;;5091628;28;20036;-65
2022/07/21 12:36:07;;;;;;;21.40;14.85;;;;;;;;;;5103634;28;20044;-66
2022/07/21 12:38:45;;;;;;;21.88;15.30;;;;;;;;;;5111881;28;20102;-65
2022/07/21 12:41:13;;;;;;;22.20;14.50;;;;;;;;;;5112001;28;20115;-67
2022/07/21 12:43:38;;;;;;;19.65;13.38;;;;;;;;;;5115898;28;20085;-66
2022/07/21 12:46:11;;;;;;;22.27;14.27;;;;;;;;;;5111751;28;20031;-66
2022/07/21 12:48:37;;;;;;;20.58;13.38;;;;;;;;;;5115833;28;20377;-66
2022/07/21 12:51:09;;;;;;;20.95;13.90;;;;;;;;;;5099368;28;20512;-66
2022/07/21 12:53:37;;;;;;;15.40;12.00;;;;;;;;;;5114614;27;20752;-65
2022/07/21 12:56:03;;;;;;;18.00;12.73;;;;;;;;;;5109583;28;20075;-66
2022/07/21 12:58:28;;;;;;;15.52;11.00;;;;;;;;;;5098909;28;20063;-66
2022/07/21 13:00:55;;;;;;;14.52;9.55;;;;;;;;;;5093643;28;20032;-68
2022/07/21 13:03:20;;;;;;;13.23;10.45;;;;;;;;;;5100159;28;20040;-65
2022/07/21 13:05:46;;;;;;;12.82;9.43;;;;;;;;;;5096927;27;20495;-64
2022/07/21 13:08:11;;;;;;;13.10;9.55;;;;;;;;;;5104317;28;20384;-64
2022/07/21 13:10:37;;;;;;;14.07;9.93;;;;;;;;;;5094933;28;20129;-62
2022/07/21 13:13:02;;;;;;;14.15;9.15;;;;;;;;;;5095349;28;20028;-68
2022/07/21 13:15:28;;;;;;;10.70;8.32;;;;;;;;;;5096060;28;20032;-67
2022/07/21 13:17:54;;;;;;;10.43;7.88;;;;;;;;;;5093656;28;20031;-67
2022/07/21 13:20:19;;;;;;;13.35;8.82;;;;;;;;;;5103410;28;20123;-62
2022/07/21 13:22:45;;;;;;;13.55;9.00;;;;;;;;;;5079398;28;20465;-66
2022/07/21 13:25:11;;;;;;;13.38;9.45;;;;;;;;;;5106727;28;20028;-67
2022/07/21 13:27:37;;;;;;;16.48;9.65;;;;;;;;;;5114967;28;20027;-66
2022/07/21 13:30:04;;;;;;;12.48;9.60;;;;;;;;;;5112970;28;20032;-61
2022/07/21 13:32:32;;;;;;;15.32;10.48;;;;;;;;;;5104464;28;20031;-64
2022/07/21 13:34:58;;;;;;;15.93;10.55;;;;;;;;;;5105201;28;20475;-66
2022/07/21 13:37:23;;;;;;;17.10;10.65;;;;;;;;;;5112818;27;20054;-67
2022/07/21 13:39:49;;;;;;;16.15;10.57;;;;;;;;;;5103440;27;20032;-67
2022/07/21 13:42:14;;;;;;;13.90;9.63;;;;;;;;;;5112884;28;20044;-66
2022/07/21 13:44:40;;;;;;;12.85;9.40;;;;;;;;;;5084380;28;20102;-68
2022/07/21 13:47:05;;;;;;;16.17;10.30;;;;;;;;;;5093115;28;20111;-69
2022/07/21 13:49:31;;;;;;;13.65;10.40;;;;;;;;;;5095073;28;20028;-68
2022/07/21 13:51:56;;;;;;;17.73;11.00;;;;;;;;;;5095199;28;20449;-67
2022/07/21 13:54:21;;;;;;;18.00;12.35;;;;;;;;;;5105732;28;20028;-67
2022/07/21 13:56:47;;;;;;;20.35;13.68;;;;;;;;;;5113962;28;20055;-71
2022/07/21 13:59:13;;;;;;;20.90;13.73;;;;;;;;;;5112323;28;20039;-68
2022/07/21 14:01:38;;;;;;;22.77;14.07;;;;;;;;;;5112523;28;20083;-69
2022/07/21 14:04:04;;;;;;;20.38;14.63;;;;;;;;;;5091806;28;20607;-66
2022/07/21 14:06:29;;;;;;;21.00;14.52;;;;;;;;;;5093355;28;20437;-65
2022/07/21 14:08:55;;;;;;;23.95;16.42;;;;;;;;;;5099384;28;20040;-64
2022/07/21 14:11:22;;;;;;;24.42;17.05;;;;;;;;;;5092385;28;20134;-67
2022/07/21 14:13:48;;;;;;;23.67;16.55;;;;;;;;;;5099931;28;20088;-69
2022/07/21 14:16:13;;;;;;;21.67;16.40;;;;;;;;;;5113328;28;20044;-66
2022/07/21 14:18:39;;;;;;;21.20;15.63;;;;;;;;;;5106191;28;20024;-65
2022/07/21 14:21:04;;;;;;;15.82;12.65;;;;;;;;;;5092378;28;20476;-65
2022/07/21 14:23:30;;;;;;;14.80;10.60;;;;;;;;;;5083652;28;20023;-67
2022/07/21 14:25:55;;;;;;;12.57;10.30;;;;;;;;;;5106428;28;20161;-68